Terminal Aerodrome Forecast
Issued by NWS

Home | Current Version | Previous Version | Text Only | Print | Product List | Glossary On
Versions: 1 2 3 4 5 6 7 8 9 10 11 12 13 14 15 16
000
FTUS44 KBMX 170541
TAFTOI
TAF
KTOI 170541Z 1706/1806 16004KT P6SM SCT250
     FM170900 15003KT P6SM SCT025 BKN150
     FM171100 14002KT 5SM BR BKN010 OVC030
     FM171300 16003KT 3SM BR BKN005 OVC015
     FM171600 20008KT P6SM BKN015=

USA.gov is the U.S. government's official web portal to all federal, state and local government web resources and services.